Time;durP1;ratioP1;P1;durP2;ratioP2;P2;SDS_P1;SDS_P2;PMS_P1;PMS_P2;Temp;Humidity;BMP_temperature;BMP_pressure;BME280_temperature;BME280_humidity;BME280_pressure;Samples;Min_cycle;Max_cycle;Signal;HPM_P1;HPM_P2
2023/02/11 00:01:29;;;;;;;47.13;42.17;;;6.60;99.90;;;;;;5114197;28;20475;-71
2023/02/11 00:03:59;;;;;;;46.73;41.80;;;6.60;99.90;;;;;;5114203;28;20473;-71
2023/02/11 00:06:30;;;;;;;47.67;42.13;;;6.70;99.90;;;;;;5114214;28;20435;-71
2023/02/11 00:08:58;;;;;;;46.53;41.53;;;6.70;99.90;;;;;;5114370;28;20456;-71
2023/02/11 00:11:29;;;;;;;43.37;38.87;;;6.70;99.90;;;;;;5114183;28;20463;-71
2023/02/11 00:13:58;;;;;;;44.60;39.33;;;6.60;99.90;;;;;;5114424;28;20421;-71
2023/02/11 00:16:26;;;;;;;45.97;40.10;;;6.70;99.90;;;;;;5095734;28;20450;-71
2023/02/11 00:18:54;;;;;;;42.83;38.53;;;6.70;99.90;;;;;;5114194;28;20460;-71
2023/02/11 00:21:24;;;;;;;44.13;39.40;;;6.70;99.90;;;;;;5113881;28;20469;-70
2023/02/11 00:23:56;;;;;;;44.00;39.37;;;6.70;99.90;;;;;;5114291;28;20887;-70
2023/02/11 00:26:26;;;;;;;47.10;41.37;;;6.70;99.90;;;;;;5114493;28;20423;-70
2023/02/11 00:28:55;;;;;;;44.83;40.30;;;6.70;99.90;;;;;;5114032;28;20466;-71
2023/02/11 00:31:24;;;;;;;45.73;39.60;;;6.70;99.90;;;;;;5113862;28;20471;-70
2023/02/11 00:33:53;;;;;;;45.13;40.40;;;6.70;99.90;;;;;;5113852;28;20440;-70
2023/02/11 00:36:23;;;;;;;43.93;39.23;;;6.70;99.90;;;;;;5095571;28;20518;-70
2023/02/11 00:38:54;;;;;;;43.70;39.17;;;6.80;99.90;;;;;;5113763;28;20989;-70
2023/02/11 00:41:23;;;;;;;43.43;38.80;;;6.80;99.90;;;;;;5114257;28;20579;-70
2023/02/11 00:43:52;;;;;;;45.70;38.30;;;6.80;99.90;;;;;;5114289;28;20943;-70
2023/02/11 00:46:21;;;;;;;42.70;38.30;;;6.80;99.90;;;;;;5095207;28;20869;-70
2023/02/11 00:48:50;;;;;;;40.97;36.73;;;6.80;99.90;;;;;;5113669;28;20429;-71
2023/02/11 00:51:21;;;;;;;39.50;35.27;;;6.80;99.90;;;;;;5113951;28;20423;-71
2023/02/11 00:53:50;;;;;;;42.77;38.30;;;6.80;99.90;;;;;;5113920;28;20435;-69
2023/02/11 00:56:20;;;;;;;42.13;37.53;;;6.80;99.90;;;;;;5095341;28;20969;-69
2023/02/11 00:58:48;;;;;;;42.80;38.20;;;6.80;99.90;;;;;;5114000;28;20785;-70
2023/02/11 01:01:17;;;;;;;40.53;36.33;;;6.80;99.90;;;;;;5113702;28;20476;-70
2023/02/11 01:03:45;;;;;;;43.07;38.23;;;6.80;99.90;;;;;;5113737;28;20513;-70
2023/02/11 01:06:13;;;;;;;43.53;38.77;;;6.80;99.90;;;;;;5113785;28;20436;-70
2023/02/11 01:08:42;;;;;;;48.30;37.70;;;6.80;99.90;;;;;;5095302;28;20440;-70
2023/02/11 01:11:14;;;;;;;41.83;37.47;;;6.80;99.90;;;;;;5113722;28;20437;-70
2023/02/11 01:13:48;;;;;;;42.30;37.30;;;6.80;99.90;;;;;;5095237;28;20535;-71
2023/02/11 01:16:17;;;;;;;42.80;38.30;;;6.80;99.90;;;;;;5113795;28;20419;-71
2023/02/11 01:18:46;;;;;;;44.87;36.90;;;6.80;99.90;;;;;;5113873;28;20480;-71
2023/02/11 01:21:17;;;;;;;50.43;37.43;;;6.80;99.90;;;;;;5095171;28;20461;-71
2023/02/11 01:23:45;;;;;;;47.13;37.60;;;6.80;99.90;;;;;;5095104;28;20438;-71
2023/02/11 01:26:13;;;;;;;40.80;36.70;;;6.80;99.90;;;;;;5113294;28;21004;-71
2023/02/11 01:28:41;;;;;;;42.07;36.93;;;6.80;99.90;;;;;;5113080;28;20448;-71
2023/02/11 01:31:11;;;;;;;39.80;35.70;;;6.90;99.90;;;;;;5094963;28;20446;-70
2023/02/11 01:33:39;;;;;;;45.83;37.27;;;6.90;99.90;;;;;;5113169;28;20443;-69
2023/02/11 01:36:08;;;;;;;43.60;36.87;;;6.90;99.90;;;;;;5094975;28;20821;-71
2023/02/11 01:38:37;;;;;;;39.27;34.07;;;6.90;99.90;;;;;;5094862;28;20442;-70
2023/02/11 01:41:08;;;;;;;38.53;34.50;;;6.90;99.90;;;;;;5094994;28;20834;-69
2023/02/11 01:43:39;;;;;;;41.03;36.30;;;6.90;99.90;;;;;;5094914;28;20437;-71
2023/02/11 01:46:23;;;;;;;39.67;35.47;;;6.90;99.90;;;;;;5113383;28;20426;-70
2023/02/11 01:48:55;;;;;;;37.37;33.30;;;6.90;99.90;;;;;;5095075;28;21004;-71
2023/02/11 01:51:27;;;;;;;37.60;33.47;;;6.90;99.90;;;;;;5095137;28;20826;-71
2023/02/11 01:59:39;;;;;;;40.53;32.40;;;6.90;99.90;;;;;;5116617;28;20475;-71
2023/02/11 02:02:11;;;;;;;38.83;33.20;;;6.90;99.90;;;;;;5116996;28;20461;-71
2023/02/11 02:04:42;;;;;;;35.57;31.97;;;7.00;99.90;;;;;;5117047;28;20489;-71
2023/02/11 02:07:14;;;;;;;38.57;33.83;;;7.00;99.90;;;;;;5098374;28;20528;-71
2023/02/11 02:09:48;;;;;;;36.90;32.67;;;7.00;99.90;;;;;;5098350;28;20484;-71
2023/02/11 02:12:16;;;;;;;37.43;32.90;;;7.00;99.90;;;;;;5098403;28;20429;-71
2023/02/11 02:14:44;;;;;;;34.97;31.47;;;7.00;99.90;;;;;;5098092;28;20519;-71
2023/02/11 02:17:28;;;;;;;37.37;33.53;;;7.00;99.90;;;;;;5116431;28;20442;-71
2023/02/11 02:20:31;;;;;;;36.73;32.80;;;7.00;99.90;;;;;;5116851;28;20500;-71
2023/02/11 02:23:27;;;;;;;34.57;31.03;;;7.00;99.90;;;;;;5116545;28;20417;-71
2023/02/11 02:26:25;;;;;;;32.60;29.07;;;7.00;99.90;;;;;;5116810;28;20428;-71
2023/02/11 02:29:17;;;;;;;39.57;34.23;;;7.00;99.90;;;;;;5116127;28;20487;-71
2023/02/11 02:32:03;;;;;;;36.23;31.70;;;7.00;99.90;;;;;;5098037;28;20482;-71
2023/02/11 02:34:39;;;;;;;37.47;31.97;;;7.00;99.90;;;;;;5116092;28;20512;-71
2023/02/11 02:37:15;;;;;;;34.63;30.93;;;7.00;99.90;;;;;;5116325;28;20903;-71
2023/02/11 02:39:45;;;;;;;36.13;31.93;;;7.10;99.90;;;;;;5116082;28;20459;-71
2023/02/11 02:42:14;;;;;;;40.17;31.17;;;7.10;99.90;;;;;;5116146;28;20466;-71
2023/02/11 02:44:48;;;;;;;35.07;31.20;;;7.10;99.90;;;;;;5116084;28;20929;-71
2023/02/11 02:47:16;;;;;;;35.00;30.47;;;7.10;99.90;;;;;;5116096;28;20499;-71
2023/02/11 02:49:46;;;;;;;33.40;30.00;;;7.10;99.90;;;;;;5115957;28;20516;-71
2023/02/11 02:52:28;;;;;;;33.40;29.70;;;7.10;99.90;;;;;;5115954;28;20800;-71
2023/02/11 02:55:23;;;;;;;35.83;30.40;;;7.10;99.90;;;;;;5115966;28;20424;-71
2023/02/11 02:58:21;;;;;;;34.13;30.57;;;7.10;99.90;;;;;;5115968;28;20422;-71
2023/02/11 03:00:56;;;;;;;43.23;31.50;;;7.10;99.90;;;;;;5107896;28;20461;-71
2023/02/11 03:03:31;;;;;;;38.97;30.27;;;7.10;99.90;;;;;;5115799;28;20503;-71
2023/02/11 03:06:05;;;;;;;32.00;28.70;;;7.10;99.90;;;;;;5116040;28;20428;-70
2023/02/11 03:08:38;;;;;;;33.63;29.53;;;7.10;99.90;;;;;;5115500;28;20427;-70
2023/02/11 03:11:09;;;;;;;35.80;28.90;;;7.10;99.90;;;;;;5097037;28;20537;-70
2023/02/11 03:13:39;;;;;;;35.03;30.00;;;7.10;99.90;;;;;;5115319;28;20423;-70
2023/02/11 03:16:11;;;;;;;32.43;28.47;;;7.10;99.90;;;;;;5096950;28;20433;-70
2023/02/11 03:18:44;;;;;;;31.93;28.40;;;7.10;99.90;;;;;;5096844;28;20444;-70
2023/02/11 03:21:15;;;;;;;38.93;29.07;;;7.10;99.90;;;;;;5115550;28;20909;-71
2023/02/11 03:23:49;;;;;;;31.63;28.43;;;7.10;99.90;;;;;;5096840;28;20522;-71
2023/02/11 03:26:25;;;;;;;33.33;27.90;;;7.10;99.90;;;;;;5115350;28;20420;-71
2023/02/11 03:28:58;;;;;;;32.57;29.20;;;7.10;99.90;;;;;;5115063;28;20484;-71
2023/02/11 03:31:30;;;;;;;32.37;27.63;;;7.10;99.90;;;;;;5115198;28;20421;-71
2023/02/11 03:34:07;;;;;;;32.50;29.03;;;7.20;99.90;;;;;;5115109;28;20900;-71
2023/02/11 03:36:46;;;;;;;32.93;27.37;;;7.20;99.90;;;;;;5115096;28;20430;-70
2023/02/11 03:39:19;;;;;;;31.43;27.90;;;7.20;99.90;;;;;;5114985;28;20809;-70
2023/02/11 03:41:49;;;;;;;33.03;28.30;;;7.20;99.90;;;;;;5114919;28;20462;-71
2023/02/11 03:44:19;;;;;;;30.20;26.80;;;7.20;99.90;;;;;;5114668;28;20433;-71
2023/02/11 03:46:50;;;;;;;37.53;28.00;;;7.20;99.90;;;;;;5114592;28;20442;-71
2023/02/11 03:49:22;;;;;;;31.57;26.43;;;7.20;99.90;;;;;;5114828;28;20458;-71
2023/02/11 03:51:53;;;;;;;34.90;26.07;;;7.20;99.90;;;;;;5114809;28;20419;-71
2023/02/11 03:54:26;;;;;;;33.27;26.80;;;7.20;99.90;;;;;;5096285;28;20445;-71
2023/02/11 03:56:57;;;;;;;31.30;27.27;;;7.20;99.90;;;;;;5114459;28;20417;-71
2023/02/11 03:59:26;;;;;;;32.43;26.17;;;7.20;99.90;;;;;;5114569;28;20451;-71
2023/02/11 04:01:56;;;;;;;31.47;25.40;;;7.20;99.90;;;;;;5114237;28;20470;-71
2023/02/11 04:04:24;;;;;;;29.97;26.40;;;7.20;99.90;;;;;;5114560;28;20868;-71
2023/02/11 04:06:54;;;;;;;33.07;27.40;;;7.20;99.90;;;;;;5114234;28;20453;-71
2023/02/11 04:09:22;;;;;;;29.83;25.67;;;7.20;99.90;;;;;;5114188;28;20453;-71
2023/02/11 04:11:50;;;;;;;28.43;24.60;;;7.30;99.90;;;;;;5114126;28;20459;-71
2023/02/11 04:14:18;;;;;;;32.83;25.97;;;7.30;99.90;;;;;;5114410;28;20446;-71
2023/02/11 04:16:46;;;;;;;30.70;24.90;;;7.30;99.90;;;;;;5114041;28;20439;-71
2023/02/11 04:19:14;;;;;;;30.00;26.20;;;7.30;99.90;;;;;;5114032;28;20452;-71
2023/02/11 04:21:42;;;;;;;32.13;25.57;;;7.30;99.90;;;;;;5113737;28;20441;-71
2023/02/11 04:24:11;;;;;;;29.03;25.63;;;7.30;99.90;;;;;;5113976;28;20449;-71
2023/02/11 04:26:39;;;;;;;31.23;25.07;;;7.30;99.90;;;;;;5113915;28;20453;-71
2023/02/11 04:29:07;;;;;;;28.40;24.57;;;7.30;99.90;;;;;;5113837;28;20477;-71
2023/02/11 04:31:35;;;;;;;31.43;23.77;;;7.30;99.90;;;;;;5113801;28;20476;-71
2023/02/11 04:34:04;;;;;;;27.37;23.80;;;7.30;99.90;;;;;;5114104;28;20925;-71
2023/02/11 04:36:32;;;;;;;29.87;24.50;;;7.30;99.90;;;;;;5095623;28;20452;-71
2023/02/11 04:39:00;;;;;;;31.17;25.00;;;7.30;99.90;;;;;;5113740;28;20458;-71
2023/02/11 04:41:30;;;;;;;35.33;25.60;;;7.30;99.90;;;;;;5095551;28;20464;-71
2023/02/11 04:43:58;;;;;;;29.50;24.13;;;7.30;99.90;;;;;;5114462;28;20864;-71
2023/02/11 04:46:26;;;;;;;29.33;25.97;;;7.30;99.90;;;;;;5114620;28;20436;-71
2023/02/11 04:48:54;;;;;;;29.23;25.27;;;7.30;99.90;;;;;;5114136;28;20459;-71
2023/02/11 04:51:22;;;;;;;31.43;24.50;;;7.30;99.90;;;;;;5114188;28;21023;-71
2023/02/11 04:53:50;;;;;;;32.17;25.50;;;7.30;99.90;;;;;;5095691;28;20438;-71
2023/02/11 04:56:18;;;;;;;26.83;23.97;;;7.30;99.90;;;;;;5113874;28;20437;-71
2023/02/11 04:58:48;;;;;;;27.37;24.43;;;7.30;99.90;;;;;;5113607;28;20439;-71
2023/02/11 05:01:16;;;;;;;31.97;24.13;;;7.30;99.90;;;;;;5113936;28;20435;-71
2023/02/11 05:03:44;;;;;;;31.30;24.43;;;7.30;99.90;;;;;;5113722;28;20467;-71
2023/02/11 05:06:13;;;;;;;27.27;24.37;;;7.30;99.90;;;;;;5095564;28;20464;-71
2023/02/11 05:08:41;;;;;;;29.53;25.20;;;7.30;99.90;;;;;;5114067;28;20439;-71
2023/02/11 05:11:15;;;;;;;29.13;24.27;;;7.40;99.90;;;;;;5113498;28;20961;-71
2023/02/11 05:13:44;;;;;;;31.10;25.20;;;7.40;99.90;;;;;;5095305;28;20545;-71
2023/02/11 05:16:14;;;;;;;30.27;25.13;;;7.40;99.90;;;;;;5095242;28;20446;-71
2023/02/11 05:18:43;;;;;;;31.53;24.77;;;7.40;99.90;;;;;;5113460;28;20470;-71
2023/02/11 05:21:14;;;;;;;32.30;24.80;;;7.40;99.90;;;;;;5113920;28;20431;-71
2023/02/11 05:23:43;;;;;;;29.90;23.57;;;7.40;99.90;;;;;;5113692;28;20451;-71
2023/02/11 05:26:12;;;;;;;27.57;23.77;;;7.40;99.90;;;;;;5113364;28;20478;-71
2023/02/11 05:28:41;;;;;;;28.77;23.17;;;7.40;99.90;;;;;;5113426;28;20507;-71
2023/02/11 05:31:09;;;;;;;29.77;24.80;;;7.40;99.90;;;;;;5113529;28;20436;-71
2023/02/11 05:33:39;;;;;;;32.90;24.50;;;7.40;99.90;;;;;;5115878;28;20487;-71
2023/02/11 05:36:09;;;;;;;28.83;23.97;;;7.40;99.90;;;;;;5117632;28;20437;-71
2023/02/11 05:38:38;;;;;;;27.27;24.20;;;7.40;99.90;;;;;;5117208;28;20418;-71
2023/02/11 05:41:06;;;;;;;31.33;24.97;;;7.40;99.90;;;;;;5098930;28;20446;-71
2023/02/11 05:43:35;;;;;;;31.37;26.07;;;7.40;99.90;;;;;;5117717;28;20474;-71
2023/02/11 05:46:04;;;;;;;26.87;24.10;;;7.40;99.90;;;;;;5098783;28;20468;-71
2023/02/11 05:48:32;;;;;;;31.00;24.40;;;7.40;99.90;;;;;;5117117;28;20452;-71
2023/02/11 05:51:02;;;;;;;33.73;25.07;;;7.40;99.90;;;;;;5117152;28;20932;-71
2023/02/11 05:53:30;;;;;;;30.80;24.80;;;7.40;99.90;;;;;;5117124;28;20454;-71
2023/02/11 05:55:58;;;;;;;25.73;23.03;;;7.40;99.90;;;;;;5117006;28;20442;-71
2023/02/11 05:58:26;;;;;;;29.27;23.40;;;7.40;99.90;;;;;;5116782;28;20433;-71
2023/02/11 06:00:54;;;;;;;27.73;23.83;;;7.40;99.90;;;;;;5098342;28;20492;-71
2023/02/11 06:03:22;;;;;;;33.33;24.97;;;7.40;99.90;;;;;;5116557;28;20464;-71
2023/02/11 06:05:50;;;;;;;33.03;24.80;;;7.40;99.90;;;;;;5116715;28;20938;-71
2023/02/11 06:08:20;;;;;;;33.33;27.20;;;7.40;99.90;;;;;;5116550;28;20522;-71
2023/02/11 06:10:48;;;;;;;34.17;26.37;;;7.40;99.90;;;;;;5098285;28;20458;-71
2023/02/11 06:13:17;;;;;;;34.37;27.33;;;7.40;99.90;;;;;;5098312;28;20472;-71
2023/02/11 06:15:45;;;;;;;34.50;26.33;;;7.40;99.90;;;;;;5116515;28;20524;-71
2023/02/11 06:18:14;;;;;;;27.97;24.97;;;7.40;99.90;;;;;;5116438;28;20438;-71
2023/02/11 06:20:42;;;;;;;35.40;26.67;;;7.40;99.90;;;;;;5116505;28;20444;-71
2023/02/11 06:23:10;;;;;;;39.97;27.40;;;7.40;99.90;;;;;;5116535;28;20505;-71
2023/02/11 06:25:39;;;;;;;33.07;25.70;;;7.40;99.90;;;;;;5116216;28;20970;-71
2023/02/11 06:28:09;;;;;;;33.40;26.40;;;7.40;99.90;;;;;;5116427;28;20452;-71
2023/02/11 06:30:37;;;;;;;34.93;27.70;;;7.40;99.90;;;;;;5097814;28;20478;-71
2023/02/11 06:33:05;;;;;;;34.93;27.30;;;7.40;99.90;;;;;;5116623;28;20453;-71
2023/02/11 06:35:34;;;;;;;32.60;26.03;;;7.40;99.90;;;;;;5116078;28;20491;-71
2023/02/11 06:38:02;;;;;;;37.03;27.53;;;7.40;99.90;;;;;;5116280;28;20449;-71
2023/02/11 06:40:30;;;;;;;34.33;28.07;;;7.40;99.90;;;;;;5115877;28;20447;-71
2023/02/11 06:43:00;;;;;;;44.20;26.90;;;7.40;99.90;;;;;;5115712;28;20427;-71
2023/02/11 06:45:28;;;;;;;36.37;27.30;;;7.40;99.90;;;;;;5097377;28;20450;-71
2023/02/11 06:47:56;;;;;;;35.13;27.80;;;7.40;99.90;;;;;;5116376;28;20960;-71
2023/02/11 06:50:24;;;;;;;35.47;28.97;;;7.40;99.90;;;;;;5115761;28;20449;-71
2023/02/11 06:52:52;;;;;;;37.13;29.43;;;7.40;99.90;;;;;;5115750;28;20445;-71
2023/02/11 06:55:20;;;;;;;31.77;28.47;;;7.40;99.90;;;;;;5115945;28;20442;-71
2023/02/11 06:57:48;;;;;;;38.07;31.00;;;7.40;99.90;;;;;;5115987;28;20444;-71
2023/02/11 07:00:19;;;;;;;33.63;28.03;;;7.40;99.90;;;;;;5115525;28;20449;-71
2023/02/11 07:02:47;;;;;;;39.40;29.87;;;7.40;99.90;;;;;;5115503;28;20776;-71
2023/02/11 07:05:15;;;;;;;33.10;28.13;;;7.40;99.90;;;;;;5115771;28;20893;-71
2023/02/11 07:07:43;;;;;;;38.77;30.17;;;7.40;99.90;;;;;;5115491;28;20437;-71
2023/02/11 07:10:11;;;;;;;35.20;29.67;;;7.40;99.90;;;;;;5115642;28;20461;-71
2023/02/11 07:12:40;;;;;;;36.03;29.27;;;7.40;99.90;;;;;;5115648;28;20438;-71
2023/02/11 07:15:08;;;;;;;39.33;28.20;;;7.40;99.90;;;;;;5115292;28;20964;-71
2023/02/11 07:17:38;;;;;;;34.93;28.33;;;7.40;99.90;;;;;;5115516;28;20961;-71
2023/02/11 07:20:07;;;;;;;34.20;29.33;;;7.50;99.90;;;;;;5096871;28;20478;-71
2023/02/11 07:22:36;;;;;;;34.73;27.00;;;7.50;99.90;;;;;;5115411;28;20458;-71
2023/02/11 07:25:04;;;;;;;38.07;29.13;;;7.50;99.90;;;;;;5114984;28;20470;-71
2023/02/11 07:27:32;;;;;;;31.70;28.37;;;7.50;99.90;;;;;;5115390;28;20842;-71
2023/02/11 07:30:01;;;;;;;31.17;27.70;;;7.50;99.90;;;;;;5115468;28;20470;-71
2023/02/11 07:32:29;;;;;;;37.77;29.07;;;7.50;99.90;;;;;;5115172;28;20961;-71
2023/02/11 07:34:58;;;;;;;37.73;28.97;;;7.60;99.90;;;;;;5114900;28;20443;-71
2023/02/11 07:37:27;;;;;;;38.23;28.60;;;7.60;99.90;;;;;;5114947;28;20945;-71
2023/02/11 07:39:55;;;;;;;35.23;28.80;;;7.60;99.90;;;;;;5114921;28;20466;-71
2023/02/11 07:42:23;;;;;;;33.23;28.13;;;7.60;99.90;;;;;;5096523;28;20447;-71
2023/02/11 07:44:51;;;;;;;32.47;27.53;;;7.60;99.90;;;;;;5096405;28;20516;-71
2023/02/11 07:47:19;;;;;;;39.77;28.73;;;7.60;99.90;;;;;;5114668;28;20466;-71
2023/02/11 07:49:47;;;;;;;33.33;29.53;;;7.70;99.90;;;;;;5114556;28;20512;-71
2023/02/11 07:52:17;;;;;;;34.80;27.67;;;7.70;99.90;;;;;;5096371;28;20541;-71
2023/02/11 07:54:45;;;;;;;32.10;27.70;;;7.70;99.90;;;;;;5114290;28;20474;-71
2023/02/11 07:57:13;;;;;;;30.37;26.90;;;7.70;99.90;;;;;;5114397;28;20457;-71
2023/02/11 07:59:41;;;;;;;32.70;27.00;;;7.70;99.90;;;;;;5114492;28;20979;-71
2023/02/11 08:02:09;;;;;;;32.30;27.30;;;7.70;99.90;;;;;;5114376;28;20431;-71
2023/02/11 08:04:37;;;;;;;32.83;28.00;;;7.70;99.90;;;;;;5114546;28;20513;-71
2023/02/11 08:07:05;;;;;;;30.83;26.90;;;7.70;99.90;;;;;;5114342;28;20437;-71
2023/02/11 08:09:35;;;;;;;41.40;27.47;;;7.70;99.90;;;;;;5114237;28;20542;-71
2023/02/11 08:12:03;;;;;;;33.13;26.80;;;7.80;99.90;;;;;;5114530;28;20435;-71
2023/02/11 08:14:32;;;;;;;31.40;25.93;;;7.80;99.90;;;;;;5095982;28;20454;-71
2023/02/11 08:17:00;;;;;;;33.10;26.20;;;7.80;99.90;;;;;;5114038;28;20505;-71
2023/02/11 08:19:28;;;;;;;32.60;25.87;;;7.80;99.90;;;;;;5113993;28;20463;-71
2023/02/11 08:21:58;;;;;;;30.53;27.13;;;7.80;99.90;;;;;;5114129;28;20443;-71
2023/02/11 08:24:26;;;;;;;30.27;25.20;;;7.90;99.90;;;;;;5113979;28;20869;-71
2023/02/11 08:26:55;;;;;;;29.90;25.30;;;7.90;99.90;;;;;;5113925;28;20487;-71
2023/02/11 08:29:23;;;;;;;31.73;25.90;;;7.90;99.90;;;;;;5113913;28;20861;-71
2023/02/11 08:31:52;;;;;;;31.43;25.50;;;7.90;99.90;;;;;;5113888;28;20502;-72
2023/02/11 08:34:20;;;;;;;30.43;25.80;;;8.00;99.90;;;;;;5114319;28;20467;-71
2023/02/11 08:36:49;;;;;;;28.47;25.47;;;8.00;99.90;;;;;;5113859;28;20431;-72
2023/02/11 08:39:21;;;;;;;29.40;25.67;;;8.00;99.90;;;;;;5095593;28;20520;-72
2023/02/11 08:41:52;;;;;;;28.27;24.77;;;8.00;99.90;;;;;;5114144;28;20430;-72
2023/02/11 08:44:23;;;;;;;33.40;27.53;;;8.00;99.90;;;;;;5114262;28;20532;-72
2023/02/11 08:46:51;;;;;;;30.40;23.97;;;8.00;99.90;;;;;;5113696;28;20442;-71
2023/02/11 08:49:21;;;;;;;33.40;26.03;;;8.10;99.90;;;;;;5113945;28;20470;-71
2023/02/11 08:51:50;;;;;;;29.30;25.27;;;8.10;99.90;;;;;;5114073;28;20442;-70
2023/02/11 08:54:18;;;;;;;28.17;24.00;;;8.10;99.90;;;;;;5113621;28;20439;-71
2023/02/11 08:56:50;;;;;;;29.90;25.73;;;8.10;99.90;;;;;;5113591;28;20449;-71
2023/02/11 08:59:18;;;;;;;30.23;25.57;;;8.10;99.90;;;;;;5113874;28;20453;-70
2023/02/11 09:01:48;;;;;;;29.13;24.97;;;8.10;99.90;;;;;;5113787;28;20440;-72
2023/02/11 09:04:16;;;;;;;32.83;25.53;;;8.20;99.90;;;;;;5114030;28;20432;-72
2023/02/11 09:06:44;;;;;;;27.73;24.83;;;8.20;99.90;;;;;;5114515;28;20519;-72
2023/02/11 09:09:15;;;;;;;28.10;24.80;;;8.20;99.90;;;;;;5099456;28;20570;-72
2023/02/11 09:11:44;;;;;;;27.40;24.00;;;8.20;99.90;;;;;;5118073;28;20434;-71
2023/02/11 09:14:18;;;;;;;33.50;25.17;;;8.20;99.90;;;;;;5117670;28;20890;-72
2023/02/11 09:16:48;;;;;;;27.87;24.03;;;8.20;99.90;;;;;;5118011;28;20419;-71
2023/02/11 09:19:17;;;;;;;30.57;25.00;;;8.20;99.90;;;;;;5117550;28;20486;-71
2023/02/11 09:21:45;;;;;;;30.53;25.97;;;8.20;99.90;;;;;;5117537;28;20449;-71
2023/02/11 09:24:14;;;;;;;27.97;24.80;;;8.30;99.90;;;;;;5117846;28;20434;-73
2023/02/11 09:26:43;;;;;;;29.50;24.63;;;8.30;99.90;;;;;;5117556;28;20799;-72
2023/02/11 09:29:11;;;;;;;27.30;24.00;;;8.30;99.90;;;;;;5117295;28;20475;-72
2023/02/11 09:31:39;;;;;;;28.73;25.67;;;8.30;99.90;;;;;;5117678;28;20453;-72
2023/02/11 09:34:10;;;;;;;31.30;25.53;;;8.30;99.90;;;;;;5099846;28;20603;-72
2023/02/11 09:36:40;;;;;;;31.30;25.83;;;8.30;99.90;;;;;;5117691;28;20422;-72
2023/02/11 09:39:12;;;;;;;29.73;26.40;;;8.30;99.90;;;;;;5117552;28;20992;-72
2023/02/11 09:42:10;;;;;;;31.10;25.10;;;8.30;99.90;;;;;;5117572;28;20411;-72
2023/02/11 09:44:39;;;;;;;30.20;26.07;;;8.40;99.90;;;;;;5114429;28;20531;-72
2023/02/11 09:47:26;;;;;;;30.27;26.60;;;8.40;99.90;;;;;;5098860;28;20810;-72
2023/02/11 09:50:00;;;;;;;34.00;28.43;;;8.40;99.90;;;;;;5098685;28;20831;-72
2023/02/11 09:52:37;;;;;;;31.80;28.20;;;8.40;99.90;;;;;;5098686;28;20529;-72
2023/02/11 09:55:14;;;;;;;30.80;26.23;;;8.40;99.90;;;;;;5098983;28;20779;-72
2023/02/11 09:57:42;;;;;;;29.70;26.20;;;8.40;99.90;;;;;;5117197;28;20430;-72
2023/02/11 10:00:22;;;;;;;30.30;25.50;;;8.50;99.90;;;;;;5116788;28;20459;-72
2023/02/11 10:03:37;;;;;;;29.17;26.10;;;8.50;99.90;;;;;;5116789;28;20502;-72
2023/02/11 10:06:28;;;;;;;31.23;26.10;;;8.50;99.90;;;;;;5014524;28;20470;-72
2023/02/11 10:09:06;;;;;;;31.27;26.80;;;8.50;99.90;;;;;;5116791;28;20447;-72
2023/02/11 10:11:46;;;;;;;28.83;25.73;;;8.50;99.90;;;;;;5116557;28;20431;-72
2023/02/11 10:14:31;;;;;;;30.60;25.97;;;8.50;99.90;;;;;;5116797;28;20434;-72
2023/02/11 10:17:09;;;;;;;30.43;27.13;;;8.60;99.90;;;;;;5117145;28;20526;-72
2023/02/11 10:19:51;;;;;;;30.80;27.13;;;8.60;99.90;;;;;;5115905;28;20459;-72
2023/02/11 10:22:25;;;;;;;30.27;26.90;;;8.60;99.90;;;;;;5116998;28;20771;-72
2023/02/11 10:24:57;;;;;;;29.90;26.80;;;8.60;99.90;;;;;;5116587;28;20876;-72
2023/02/11 10:27:29;;;;;;;31.90;26.63;;;8.60;99.90;;;;;;5098199;28;20525;-72
2023/02/11 10:30:02;;;;;;;32.43;27.57;;;8.60;99.90;;;;;;5097904;28;20479;-72
2023/02/11 10:32:37;;;;;;;33.23;28.27;;;8.60;99.90;;;;;;5116433;28;20445;-72
2023/02/11 10:35:15;;;;;;;29.30;26.20;;;8.60;99.90;;;;;;5116717;28;20777;-72
2023/02/11 10:37:44;;;;;;;31.57;28.13;;;8.60;99.90;;;;;;5116334;28;20754;-72
2023/02/11 10:40:15;;;;;;;32.70;27.13;;;8.60;99.90;;;;;;5115905;28;20458;-72
2023/02/11 10:42:47;;;;;;;34.00;27.67;;;8.60;99.90;;;;;;5097741;28;20440;-72
2023/02/11 10:45:22;;;;;;;30.37;26.20;;;8.70;99.90;;;;;;5116232;28;20462;-72
2023/02/11 10:47:50;;;;;;;31.70;27.03;;;8.60;99.90;;;;;;5116298;28;20419;-72
2023/02/11 10:50:23;;;;;;;29.37;26.13;;;8.60;99.90;;;;;;5116348;28;20463;-72
2023/02/11 10:52:52;;;;;;;30.20;25.97;;;8.60;99.90;;;;;;5115863;28;20451;-72
2023/02/11 10:55:26;;;;;;;35.83;27.97;;;8.70;99.90;;;;;;5115805;28;20442;-72
2023/02/11 10:57:57;;;;;;;30.77;26.87;;;8.70;99.90;;;;;;5116245;28;20447;-72
2023/02/11 11:00:36;;;;;;;32.53;25.63;;;8.70;99.90;;;;;;5097405;28;20463;-72
2023/02/11 11:03:07;;;;;;;29.90;26.67;;;8.70;99.90;;;;;;5115877;28;20419;-72
2023/02/11 11:05:38;;;;;;;30.73;27.30;;;8.80;99.90;;;;;;5115444;28;20456;-72
2023/02/11 11:08:09;;;;;;;29.80;23.40;;;8.80;99.90;;;;;;5116051;28;20890;-72
2023/02/11 11:10:43;;;;;;;29.27;25.70;;;8.80;99.90;;;;;;5115410;28;20508;-73
2023/02/11 11:13:30;;;;;;;31.13;26.37;;;8.80;99.90;;;;;;5097073;28;20435;-71
2023/02/11 11:16:17;;;;;;;29.67;25.17;;;8.80;99.90;;;;;;5098236;28;21006;-73
2023/02/11 11:18:47;;;;;;;30.77;25.37;;;8.90;99.90;;;;;;5115453;28;20432;-73
2023/02/11 11:21:19;;;;;;;32.13;26.13;;;8.80;99.90;;;;;;5096994;28;20442;-73
2023/02/11 11:23:53;;;;;;;31.03;25.30;;;8.80;99.90;;;;;;5115506;28;20431;-73
2023/02/11 11:26:22;;;;;;;32.13;25.63;;;8.90;99.90;;;;;;5115156;28;20535;-73
2023/02/11 11:28:57;;;;;;;26.50;23.70;;;8.90;99.90;;;;;;5115010;28;20443;-72
2023/02/11 11:31:30;;;;;;;30.37;25.57;;;8.90;99.90;;;;;;5114243;28;20431;-72
2023/02/11 11:34:00;;;;;;;27.90;23.40;;;8.90;99.90;;;;;;5115132;28;20419;-72
2023/02/11 11:36:36;;;;;;;28.33;24.70;;;8.90;99.90;;;;;;5098858;28;20428;-73
2023/02/11 11:39:20;;;;;;;30.67;23.87;;;9.00;99.90;;;;;;5098472;28;20516;-72
2023/02/11 11:41:54;;;;;;;26.30;22.80;;;9.00;99.90;;;;;;5097084;28;20439;-71
2023/02/11 11:44:29;;;;;;;33.13;24.17;;;9.00;99.90;;;;;;5117092;28;20424;-71
2023/02/11 11:47:22;;;;;;;31.90;22.97;;;9.00;99.90;;;;;;5118044;28;20458;-72
2023/02/11 11:50:11;;;;;;;29.10;23.80;;;9.00;99.90;;;;;;5119388;28;20448;-71
2023/02/11 11:52:46;;;;;;;27.80;22.97;;;9.00;99.90;;;;;;5099950;28;20450;-72
2023/02/11 11:55:20;;;;;;;26.80;22.53;;;9.00;99.90;;;;;;5118643;28;20485;-72
2023/02/11 11:57:49;;;;;;;33.97;23.00;;;9.00;99.90;;;;;;5099618;28;20526;-73
2023/02/11 12:00:19;;;;;;;26.70;21.93;;;9.00;99.90;;;;;;5117489;28;20455;-71
2023/02/11 12:03:24;;;;;;;31.17;21.90;;;9.00;99.90;;;;;;5096943;28;20522;-72
2023/02/11 12:06:07;;;;;;;31.97;22.13;;;9.10;99.90;;;;;;5096257;28;20877;-73
2023/02/11 12:08:47;;;;;;;26.33;21.77;;;9.10;99.90;;;;;;5114506;28;20412;-72
2023/02/11 12:11:25;;;;;;;26.50;20.77;;;9.10;99.90;;;;;;5114448;28;20844;-71
2023/02/11 12:14:07;;;;;;;26.30;21.20;;;9.10;99.90;;;;;;5114618;28;20430;-73
2023/02/11 12:16:44;;;;;;;22.40;18.20;;;9.10;99.90;;;;;;5114239;28;20415;-72
2023/02/11 12:19:59;;;;;;;27.47;19.63;;;9.20;99.90;;;;;;5114703;28;20507;-72
2023/02/11 12:22:41;;;;;;;26.20;18.77;;;9.10;99.90;;;;;;5096006;28;20439;-72
2023/02/11 12:25:25;;;;;;;24.33;20.60;;;9.20;99.90;;;;;;5114508;28;20423;-72
2023/02/11 12:28:03;;;;;;;22.90;18.77;;;9.20;99.90;;;;;;5096619;28;20789;-73
2023/02/11 12:30:49;;;;;;;22.87;18.23;;;9.20;99.90;;;;;;5114599;28;20464;-72
2023/02/11 12:33:32;;;;;;;22.67;19.60;;;9.30;99.90;;;;;;5114496;28;20443;-72
2023/02/11 12:36:08;;;;;;;24.63;19.60;;;9.30;99.90;;;;;;5095771;28;20435;-73
2023/02/11 12:38:51;;;;;;;24.50;19.43;;;9.30;99.90;;;;;;5095587;28;20438;-72
2023/02/11 12:44:41;;;;;;;21.30;18.70;;;9.40;99.90;;;;;;5114084;28;20439;-72
2023/02/11 12:47:17;;;;;;;20.70;17.40;;;9.50;99.90;;;;;;5114263;28;20455;-72
2023/02/11 12:50:04;;;;;;;22.73;18.30;;;9.50;99.90;;;;;;5113900;28;20446;-72
2023/02/11 12:52:44;;;;;;;23.50;17.00;;;9.50;99.90;;;;;;5113758;28;20447;-72
2023/02/11 12:55:20;;;;;;;23.80;17.10;;;9.50;99.90;;;;;;5113955;28;20804;-72
2023/02/11 12:57:50;;;;;;;23.37;16.83;;;9.50;99.90;;;;;;5114216;28;20415;-73
2023/02/11 13:00:23;;;;;;;20.33;15.93;;;9.60;99.90;;;;;;5113563;28;20448;-72
2023/02/11 13:02:56;;;;;;;20.17;15.87;;;9.60;99.90;;;;;;5113651;28;20423;-72
2023/02/11 13:05:29;;;;;;;23.83;14.93;;;9.60;99.90;;;;;;5113894;28;20993;-72
2023/02/11 13:08:04;;;;;;;22.40;16.27;;;9.60;99.90;;;;;;5095323;28;20463;-72
2023/02/11 13:10:35;;;;;;;23.13;14.40;;;9.60;99.90;;;;;;5095268;28;20471;-72